Time;durP1;ratioP1;P1;durP2;ratioP2;P2;SDS_P1;SDS_P2;PMS_P1;PMS_P2;Temp;Humidity;BMP_temperature;BMP_pressure;BME280_temperature;BME280_humidity;BME280_pressure;Samples;Min_cycle;Max_cycle;Signal;HPM_P1;HPM_P2
2021/09/02 00:00:47;;;;;;;;;;;23.60;54.30;;;;;;1585891;73;1095;-70
2021/09/02 00:02:49;;;;;;;;;;;23.60;54.40;;;;;;1581102;73;726;-71
2021/09/02 00:04:51;;;;;;;;;;;23.60;54.40;;;;;;1584583;73;811;-73
2021/09/02 00:06:52;;;;;;;;;;;23.60;54.30;;;;;;1596999;73;789;-70
2021/09/02 00:08:54;;;;;;;;;;;23.60;54.20;;;;;;1578561;73;1947;-69
2021/09/02 00:10:56;;;;;;;;;;;23.60;54.40;;;;;;1587062;74;755;-69
2021/09/02 00:12:58;;;;;;;;;;;23.60;54.30;;;;;;1585051;73;751;-69
2021/09/02 00:15:00;;;;;;;;;;;23.60;54.20;;;;;;1588142;73;754;-70
2021/09/02 00:17:02;;;;;;;;;;;23.60;54.20;;;;;;1585946;73;759;-69
2021/09/02 00:19:04;;;;;;;;;;;23.60;54.20;;;;;;1579747;73;1142;-70
2021/09/02 00:21:05;;;;;;;;;;;23.60;54.20;;;;;;1579412;74;811;-71
2021/09/02 00:23:07;;;;;;;;;;;23.60;54.00;;;;;;1575826;74;779;-69
2021/09/02 00:25:09;;;;;;;;;;;23.60;54.00;;;;;;1583314;73;805;-69
2021/09/02 00:27:11;;;;;;;;;;;23.60;53.90;;;;;;1584527;73;674;-69
2021/09/02 00:29:13;;;;;;;;;;;23.60;53.90;;;;;;1582942;73;1941;-69
2021/09/02 00:31:15;;;;;;;;;;;23.60;53.90;;;;;;1585943;74;679;-74
2021/09/02 00:33:17;;;;;;;;;;;23.60;53.90;;;;;;1597977;73;740;-70
2021/09/02 00:35:19;;;;;;;;;;;23.60;54.00;;;;;;1588383;73;769;-71
2021/09/02 00:37:21;;;;;;;;;;;23.60;53.80;;;;;;1591380;73;792;-70
2021/09/02 00:39:23;;;;;;;;;;;23.60;53.80;;;;;;1580624;73;1136;-72
2021/09/02 00:41:25;;;;;;;;;;;23.60;53.70;;;;;;1579445;73;735;-70
2021/09/02 00:43:27;;;;;;;;;;;23.50;53.60;;;;;;1588782;73;765;-72
2021/09/02 00:45:29;;;;;;;;;;;23.60;53.50;;;;;;1587795;73;808;-70
2021/09/02 00:47:31;;;;;;;;;;;23.50;53.60;;;;;;1582383;73;749;-70
2021/09/02 00:49:33;;;;;;;;;;;23.50;53.60;;;;;;1586298;74;1940;-70
2021/09/02 00:51:35;;;;;;;;;;;23.60;53.50;;;;;;1585763;73;715;-70
2021/09/02 00:53:37;;;;;;;;;;;23.60;53.50;;;;;;1594322;73;800;-71
2021/09/02 00:55:39;;;;;;;;;;;23.60;53.60;;;;;;1590809;73;805;-70
2021/09/02 00:57:41;;;;;;;;;;;23.60;53.60;;;;;;1586523;73;763;-72
2021/09/02 00:59:43;;;;;;;;;;;23.60;53.50;;;;;;1588257;73;1132;-70
2021/09/02 01:01:45;;;;;;;;;;;23.60;53.40;;;;;;1579499;73;721;-72
2021/09/02 01:03:46;;;;;;;;;;;23.60;53.40;;;;;;1578729;73;714;-71
2021/09/02 01:05:49;;;;;;;;;;;23.60;53.30;;;;;;1590958;73;711;-74
2021/09/02 01:07:51;;;;;;;;;;;23.60;53.40;;;;;;1588974;73;945;-72
2021/09/02 01:09:54;;;;;;;;;;;23.60;53.20;;;;;;1597645;73;1214;-75
2021/09/02 01:11:56;;;;;;;;;;;23.60;53.30;;;;;;1591161;73;1787;-69
2021/09/02 01:13:58;;;;;;;;;;;23.50;53.10;;;;;;1588986;73;711;-69
2021/09/02 01:16:00;;;;;;;;;;;23.60;53.10;;;;;;1589188;73;821;-70
2021/09/02 01:18:01;;;;;;;;;;;23.50;53.10;;;;;;1605962;73;756;-71
2021/09/02 01:20:04;;;;;;;;;;;23.60;52.90;;;;;;1580285;73;1144;-73
2021/09/02 01:22:06;;;;;;;;;;;23.60;52.80;;;;;;1583229;74;715;-70
2021/09/02 01:24:08;;;;;;;;;;;23.60;52.80;;;;;;1570501;74;900;-81
2021/09/02 01:26:15;;;;;;;;;;;23.30;52.60;;;;;;1580248;73;819;-70
2021/09/02 01:28:17;;;;;;;;;;;23.50;52.70;;;;;;1594238;74;1929;-73
2021/09/02 01:30:18;;;;;;;;;;;23.50;52.60;;;;;;1589195;73;1175;-70
2021/09/02 01:32:21;;;;;;;;;;;23.50;52.70;;;;;;1587761;73;805;-70
2021/09/02 01:34:22;;;;;;;;;;;23.50;52.60;;;;;;1570365;74;713;-73
2021/09/02 01:36:24;;;;;;;;;;;23.50;52.70;;;;;;1590343;73;795;-72
2021/09/02 01:38:26;;;;;;;;;;;23.50;52.60;;;;;;1613148;73;856;-76
2021/09/02 01:40:30;;;;;;;;;;;23.50;52.60;;;;;;1560695;73;3127;-71
2021/09/02 01:42:31;;;;;;;;;;;23.50;52.60;;;;;;1498486;77;1825;-70
2021/09/02 01:44:33;;;;;;;;;;;23.50;52.60;;;;;;1533640;76;728;-70
2021/09/02 01:46:35;;;;;;;;;;;23.50;52.50;;;;;;1537880;76;673;-70
2021/09/02 01:48:37;;;;;;;;;;;23.50;52.60;;;;;;1542192;76;1918;-72
2021/09/02 01:50:42;;;;;;;;;;;23.50;52.60;;;;;;1486234;79;1166;-70
2021/09/02 01:52:45;;;;;;;;;;;23.50;52.50;;;;;;1491478;79;921;-72
2021/09/02 01:54:47;;;;;;;;;;;23.50;52.50;;;;;;1483725;79;727;-71
2021/09/02 01:56:48;;;;;;;;;;;23.40;52.40;;;;;;1489988;79;649;-71
2021/09/02 01:58:50;;;;;;;;;;;23.50;52.50;;;;;;1488348;79;809;-72
2021/09/02 02:00:52;;;;;;;;;;;23.50;52.50;;;;;;1489665;79;1144;-71
2021/09/02 02:02:54;;;;;;;;;;;23.50;52.40;;;;;;1479079;79;668;-70
2021/09/02 02:04:56;;;;;;;;;;;23.50;52.40;;;;;;1483607;79;753;-73
2021/09/02 02:06:58;;;;;;;;;;;23.50;52.20;;;;;;1491934;79;805;-71
2021/09/02 02:09:00;;;;;;;;;;;23.60;52.10;;;;;;1489908;79;1926;-69
2021/09/02 02:11:01;;;;;;;;;;;23.50;52.10;;;;;;1495051;79;1190;-67
2021/09/02 02:13:03;;;;;;;;;;;23.50;52.00;;;;;;1484143;79;812;-71
2021/09/02 02:15:06;;;;;;;;;;;23.50;51.90;;;;;;1486646;79;966;-71
2021/09/02 02:17:08;;;;;;;;;;;23.50;51.80;;;;;;1482718;79;850;-71
2021/09/02 02:19:10;;;;;;;;;;;23.50;51.70;;;;;;1478587;79;1430;-71
2021/09/02 02:21:11;;;;;;;;;;;23.50;51.80;;;;;;1483419;79;714;-71
2021/09/02 02:23:13;;;;;;;;;;;23.50;51.70;;;;;;1486992;79;794;-73
2021/09/02 02:25:15;;;;;;;;;;;23.50;51.80;;;;;;1479870;79;753;-71
2021/09/02 02:27:17;;;;;;;;;;;23.50;51.80;;;;;;1480876;79;728;-70
2021/09/02 02:29:19;;;;;;;;;;;23.50;51.80;;;;;;1494227;79;1957;-71
2021/09/02 02:31:21;;;;;;;;;;;23.50;51.80;;;;;;1489938;79;950;-71
2021/09/02 02:33:23;;;;;;;;;;;23.50;51.70;;;;;;1481235;79;802;-71
2021/09/02 02:35:24;;;;;;;;;;;23.50;51.80;;;;;;1489469;79;748;-71
2021/09/02 02:37:26;;;;;;;;;;;23.50;51.80;;;;;;1486446;79;743;-71
2021/09/02 02:39:28;;;;;;;;;;;23.50;51.80;;;;;;1492035;79;1154;-71
2021/09/02 02:41:30;;;;;;;;;;;23.40;51.70;;;;;;1503680;78;799;-66
2021/09/02 02:43:32;;;;;;;;;;;23.50;51.90;;;;;;1521407;76;782;-69
2021/09/02 02:45:34;;;;;;;;;;;23.50;52.00;;;;;;1513606;76;789;-69
2021/09/02 02:47:36;;;;;;;;;;;23.50;52.00;;;;;;1506421;76;749;-68
2021/09/02 02:49:38;;;;;;;;;;;23.50;52.00;;;;;;1512432;78;1928;-69
2021/09/02 02:51:40;;;;;;;;;;;23.50;52.10;;;;;;1502234;76;768;-69
2021/09/02 02:53:42;;;;;;;;;;;23.50;52.10;;;;;;1510175;78;718;-70
2021/09/02 02:55:43;;;;;;;;;;;23.50;52.10;;;;;;1514734;76;734;-70
2021/09/02 02:57:45;;;;;;;;;;;23.50;52.30;;;;;;1504368;76;826;-71
2021/09/02 02:59:47;;;;;;;;;;;23.50;52.20;;;;;;1518258;76;1357;-69
2021/09/02 03:01:49;;;;;;;;;;;23.50;52.10;;;;;;1509036;76;704;-69
2021/09/02 03:03:51;;;;;;;;;;;23.50;52.00;;;;;;1507011;76;735;-70
2021/09/02 03:05:53;;;;;;;;;;;23.50;52.00;;;;;;1509060;76;799;-70
2021/09/02 03:07:55;;;;;;;;;;;23.50;52.10;;;;;;1507924;76;660;-71
2021/09/02 03:09:56;;;;;;;;;;;23.50;52.10;;;;;;1507732;76;1926;-71
2021/09/02 03:11:58;;;;;;;;;;;23.50;52.20;;;;;;1506679;76;754;-71
2021/09/02 03:14:00;;;;;;;;;;;23.50;52.30;;;;;;1504361;76;785;-72
2021/09/02 03:16:02;;;;;;;;;;;23.50;52.40;;;;;;1506600;76;804;-71
2021/09/02 03:18:04;;;;;;;;;;;23.50;52.60;;;;;;1503668;76;727;-68
2021/09/02 03:20:06;;;;;;;;;;;23.50;52.60;;;;;;1499219;76;1213;-69
2021/09/02 03:22:08;;;;;;;;;;;23.40;52.60;;;;;;1514878;76;729;-70
2021/09/02 03:24:10;;;;;;;;;;;23.40;52.70;;;;;;1510584;76;748;-70
2021/09/02 03:26:12;;;;;;;;;;;23.50;52.90;;;;;;1504411;76;827;-70
2021/09/02 03:28:14;;;;;;;;;;;23.50;53.00;;;;;;1503673;78;753;-70
2021/09/02 03:30:15;;;;;;;;;;;23.50;53.10;;;;;;1508541;76;1941;-69
2021/09/02 03:32:17;;;;;;;;;;;23.50;53.10;;;;;;1508607;76;756;-72
2021/09/02 03:34:19;;;;;;;;;;;23.50;53.20;;;;;;1503469;76;968;-70
2021/09/02 03:36:21;;;;;;;;;;;23.50;53.20;;;;;;1511649;76;831;-71
2021/09/02 03:38:23;;;;;;;;;;;23.50;53.40;;;;;;1507993;78;814;-71
2021/09/02 03:40:25;;;;;;;;;;;23.50;53.30;;;;;;1506761;76;1168;-71
2021/09/02 03:42:27;;;;;;;;;;;23.50;53.40;;;;;;1499128;76;769;-72
2021/09/02 03:44:29;;;;;;;;;;;23.40;53.30;;;;;;1508275;76;761;-69
2021/09/02 03:46:31;;;;;;;;;;;23.40;53.40;;;;;;1506711;78;736;-71
2021/09/02 03:48:33;;;;;;;;;;;23.50;53.50;;;;;;1504378;76;775;-71
2021/09/02 03:50:34;;;;;;;;;;;23.40;53.50;;;;;;1504429;76;1942;-72
2021/09/02 03:52:36;;;;;;;;;;;23.40;53.60;;;;;;1505402;76;763;-71
2021/09/02 03:54:38;;;;;;;;;;;23.50;53.70;;;;;;1512743;76;873;-71
2021/09/02 03:56:40;;;;;;;;;;;23.40;53.60;;;;;;1504324;76;718;-71
2021/09/02 03:58:42;;;;;;;;;;;23.40;53.60;;;;;;1508453;76;743;-70
2021/09/02 04:00:44;;;;;;;;;;;23.50;53.80;;;;;;1505532;76;1168;-69
2021/09/02 04:02:46;;;;;;;;;;;23.40;53.70;;;;;;1506505;76;794;-70
2021/09/02 04:04:48;;;;;;;;;;;23.40;53.80;;;;;;1499722;76;678;-71
2021/09/02 04:06:50;;;;;;;;;;;23.40;53.80;;;;;;1507386;76;729;-70
2021/09/02 04:08:52;;;;;;;;;;;23.40;53.80;;;;;;1506876;76;754;-73
2021/09/02 04:10:54;;;;;;;;;;;23.40;53.90;;;;;;1501167;76;1922;-73
2021/09/02 04:12:55;;;;;;;;;;;23.40;53.90;;;;;;1504897;76;807;-71
2021/09/02 04:14:57;;;;;;;;;;;23.40;54.00;;;;;;1520222;76;739;-72
2021/09/02 04:16:59;;;;;;;;;;;23.50;54.20;;;;;;1507870;76;760;-72
2021/09/02 04:19:01;;;;;;;;;;;23.40;54.00;;;;;;1511887;76;724;-72
2021/09/02 04:21:07;;;;;;;;;;;23.50;54.20;;;;;;1506222;76;1152;-70
2021/09/02 04:23:07;;;;;;;;;;;23.40;54.20;;;;;;1510719;76;862;-70
2021/09/02 04:25:09;;;;;;;;;;;23.40;54.10;;;;;;1507001;78;731;-72
2021/09/02 04:27:14;;;;;;;;;;;23.40;54.10;;;;;;1503302;78;814;-71
2021/09/02 04:29:15;;;;;;;;;;;23.40;54.20;;;;;;1503957;76;1970;-71
2021/09/02 04:31:16;;;;;;;;;;;23.40;54.20;;;;;;1508094;76;719;-71
2021/09/02 04:33:18;;;;;;;;;;;23.40;54.30;;;;;;1503965;76;817;-71
2021/09/02 04:35:20;;;;;;;;;;;23.40;54.20;;;;;;1504744;76;711;-71
2021/09/02 04:37:22;;;;;;;;;;;23.40;54.20;;;;;;1506932;76;749;-71
2021/09/02 04:39:24;;;;;;;;;;;23.30;54.20;;;;;;1509644;76;1187;-72
2021/09/02 04:41:26;;;;;;;;;;;23.40;54.30;;;;;;1512982;76;801;-73
2021/09/02 04:43:28;;;;;;;;;;;23.30;54.40;;;;;;1504699;78;653;-71
2021/09/02 04:45:29;;;;;;;;;;;23.40;54.30;;;;;;1504378;76;685;-71
2021/09/02 04:47:31;;;;;;;;;;;23.40;54.40;;;;;;1481462;77;721;-70
2021/09/02 04:49:33;;;;;;;;;;;23.40;54.40;;;;;;1486567;77;1958;-66
2021/09/02 04:51:35;;;;;;;;;;;23.40;54.40;;;;;;1517514;77;671;-70
2021/09/02 04:53:37;;;;;;;;;;;23.40;54.40;;;;;;1515880;77;1070;-70
2021/09/02 04:55:39;;;;;;;;;;;23.40;54.40;;;;;;1521147;76;763;-70
2021/09/02 04:57:41;;;;;;;;;;;23.40;54.50;;;;;;1515426;76;779;-71
2021/09/02 04:59:43;;;;;;;;;;;23.40;54.50;;;;;;1514544;76;1193;-70
2021/09/02 05:01:45;;;;;;;;;;;23.40;54.60;;;;;;1517268;77;800;-69
2021/09/02 05:03:47;;;;;;;;;;;23.30;54.60;;;;;;1524738;77;794;-72
2021/09/02 05:05:49;;;;;;;;;;;23.30;54.50;;;;;;1517013;76;764;-70
2021/09/02 05:07:50;;;;;;;;;;;23.30;54.50;;;;;;1526598;76;781;-71
2021/09/02 05:09:52;;;;;;;;;;;23.40;54.60;;;;;;1520308;77;1948;-72
2021/09/02 05:11:54;;;;;;;;;;;23.30;54.60;;;;;;1529173;77;845;-70
2021/09/02 05:13:56;;;;;;;;;;;23.30;54.70;;;;;;1524004;77;755;-71
2021/09/02 05:15:58;;;;;;;;;;;23.30;54.70;;;;;;1518377;77;758;-72
2021/09/02 05:18:00;;;;;;;;;;;23.30;54.70;;;;;;1525170;76;770;-72
2021/09/02 05:20:02;;;;;;;;;;;23.40;54.70;;;;;;1526860;77;1184;-72
2021/09/02 05:22:04;;;;;;;;;;;23.30;54.70;;;;;;1519868;76;792;-69
2021/09/02 05:24:06;;;;;;;;;;;23.40;54.70;;;;;;1527186;77;751;-70
2021/09/02 05:26:08;;;;;;;;;;;23.40;54.70;;;;;;1524638;77;751;-70
2021/09/02 05:28:09;;;;;;;;;;;23.40;54.70;;;;;;1527269;77;728;-71
2021/09/02 05:30:12;;;;;;;;;;;23.30;54.70;;;;;;1523354;76;1949;-70
2021/09/02 05:32:13;;;;;;;;;;;23.30;54.80;;;;;;1524626;77;816;-71
2021/09/02 05:34:15;;;;;;;;;;;23.40;54.80;;;;;;1513590;77;722;-69
2021/09/02 05:36:17;;;;;;;;;;;23.30;54.90;;;;;;1527199;77;732;-71
2021/09/02 05:38:19;;;;;;;;;;;23.30;54.90;;;;;;1522392;77;755;-71
2021/09/02 05:40:21;;;;;;;;;;;23.30;55.00;;;;;;1526895;77;1143;-71
2021/09/02 05:42:23;;;;;;;;;;;23.40;54.90;;;;;;1516318;76;794;-70
2021/09/02 05:44:25;;;;;;;;;;;23.30;54.90;;;;;;1512163;76;746;-70
2021/09/02 05:46:27;;;;;;;;;;;23.40;55.00;;;;;;1522487;77;794;-71
2021/09/02 05:48:28;;;;;;;;;;;23.30;55.00;;;;;;1514940;77;752;-72
2021/09/02 05:50:30;;;;;;;;;;;23.30;55.00;;;;;;1519597;77;1946;-72
2021/09/02 05:52:32;;;;;;;;;;;23.30;55.00;;;;;;1522377;76;795;-71
2021/09/02 05:54:34;;;;;;;;;;;23.30;55.10;;;;;;1513374;77;660;-71
2021/09/02 05:56:36;;;;;;;;;;;23.30;55.00;;;;;;1518269;77;751;-72
2021/09/02 05:58:38;;;;;;;;;;;23.40;55.00;;;;;;1519862;76;819;-72
2021/09/02 06:00:40;;;;;;;;;;;23.30;55.00;;;;;;1527753;76;1147;-70
2021/09/02 06:02:42;;;;;;;;;;;23.30;55.10;;;;;;1516088;76;759;-69
2021/09/02 06:04:43;;;;;;;;;;;23.30;55.10;;;;;;1511446;77;812;-69
2021/09/02 06:06:45;;;;;;;;;;;23.30;55.10;;;;;;1516162;76;746;-68
2021/09/02 06:08:47;;;;;;;;;;;23.30;55.00;;;;;;1513314;77;753;-68
2021/09/02 06:10:49;;;;;;;;;;;23.40;55.00;;;;;;1516243;76;1953;-69
2021/09/02 06:12:53;;;;;;;;;;;23.30;55.00;;;;;;1521607;77;716;-69
2021/09/02 06:14:54;;;;;;;;;;;23.30;55.00;;;;;;1519314;77;734;-68
2021/09/02 06:16:56;;;;;;;;;;;23.40;55.10;;;;;;1520673;77;611;-69
2021/09/02 06:18:58;;;;;;;;;;;23.40;55.10;;;;;;1522257;76;781;-69
2021/09/02 06:21:00;;;;;;;;;;;23.30;55.00;;;;;;1514127;77;1176;-69
2021/09/02 06:23:04;;;;;;;;;;;23.30;55.10;;;;;;1519874;76;785;-68
2021/09/02 06:25:06;;;;;;;;;;;23.30;55.00;;;;;;1524198;77;713;-66
2021/09/02 06:27:08;;;;;;;;;;;23.30;55.00;;;;;;1518754;76;708;-69
2021/09/02 06:29:10;;;;;;;;;;;23.30;55.00;;;;;;1523390;77;727;-69
2021/09/02 06:31:11;;;;;;;;;;;23.30;55.10;;;;;;1522284;76;1934;-70
2021/09/02 06:33:14;;;;;;;;;;;23.30;55.00;;;;;;1526396;77;827;-69
2021/09/02 06:35:15;;;;;;;;;;;23.30;55.00;;;;;;1526977;77;699;-68
2021/09/02 06:37:17;;;;;;;;;;;23.30;55.10;;;;;;1525523;77;748;-68
2021/09/02 06:39:19;;;;;;;;;;;23.30;55.00;;;;;;1522431;76;1156;-68
2021/09/02 06:41:21;;;;;;;;;;;23.30;55.10;;;;;;1521324;76;673;-69
2021/09/02 06:43:23;;;;;;;;;;;23.30;55.10;;;;;;1519270;76;800;-69
2021/09/02 06:45:25;;;;;;;;;;;23.30;55.20;;;;;;1521204;77;721;-68
2021/09/02 06:47:27;;;;;;;;;;;23.30;55.10;;;;;;1522796;76;740;-69
2021/09/02 06:49:28;;;;;;;;;;;23.30;55.20;;;;;;1522605;77;1239;-69
2021/09/02 06:51:30;;;;;;;;;;;23.30;55.20;;;;;;1517859;77;1956;-68
2021/09/02 06:53:32;;;;;;;;;;;23.30;55.20;;;;;;1516800;76;739;-66
2021/09/02 06:55:34;;;;;;;;;;;23.30;55.20;;;;;;1518313;77;821;-70
2021/09/02 06:57:36;;;;;;;;;;;23.30;55.30;;;;;;1518048;76;792;-71
2021/09/02 06:59:38;;;;;;;;;;;23.30;55.30;;;;;;1512739;76;1093;-69
2021/09/02 07:01:40;;;;;;;;;;;23.30;55.30;;;;;;1521975;76;731;-68
2021/09/02 07:03:42;;;;;;;;;;;23.40;55.50;;;;;;1517162;76;752;-71
2021/09/02 07:05:44;;;;;;;;;;;23.50;55.30;;;;;;1513955;77;770;-68
2021/09/02 07:07:46;;;;;;;;;;;23.50;55.10;;;;;;1521605;77;761;-68
2021/09/02 07:09:48;;;;;;;;;;;23.50;54.80;;;;;;1524900;76;1130;-68
2021/09/02 07:11:50;;;;;;;;;;;23.60;54.60;;;;;;1517064;77;1941;-70
2021/09/02 07:13:51;;;;;;;;;;;23.50;54.50;;;;;;1511930;76;791;-64
2021/09/02 07:15:53;;;;;;;;;;;23.50;54.20;;;;;;1515908;77;683;-68
2021/09/02 07:17:55;;;;;;;;;;;23.50;54.10;;;;;;1517256;76;791;-71
2021/09/02 07:19:59;;;;;;;;;;;23.50;53.90;;;;;;1519455;76;1189;-71
2021/09/02 07:22:01;;;;;;;;;;;23.60;53.80;;;;;;1521072;76;809;-68
2021/09/02 07:24:02;;;;;;;;;;;23.50;53.70;;;;;;1515687;76;782;-71
2021/09/02 07:26:04;;;;;;;;;;;23.50;53.70;;;;;;1516643;77;717;-67
2021/09/02 07:28:06;;;;;;;;;;;23.50;53.60;;;;;;1516380;76;777;-67
2021/09/02 07:30:08;;;;;;;;;;;23.50;53.60;;;;;;1512340;76;1159;-68
2021/09/02 07:32:11;;;;;;;;;;;23.40;53.60;;;;;;1514928;77;1933;-66
2021/09/02 07:34:12;;;;;;;;;;;23.40;53.60;;;;;;1517293;77;589;-71
2021/09/02 07:36:14;;;;;;;;;;;23.50;53.60;;;;;;1526761;76;884;-72
2021/09/02 07:38:16;;;;;;;;;;;23.40;53.50;;;;;;1522857;77;709;-69
2021/09/02 07:40:18;;;;;;;;;;;23.30;53.50;;;;;;1546171;73;2043;-76
2021/09/02 07:42:20;;;;;;;;;;;23.40;53.40;;;;;;1577632;73;715;-72
2021/09/02 07:44:22;;;;;;;;;;;23.40;53.40;;;;;;1582084;73;708;-70
2021/09/02 07:46:24;;;;;;;;;;;23.30;53.30;;;;;;1580378;73;699;-72
2021/09/02 07:48:26;;;;;;;;;;;23.40;53.30;;;;;;1584615;73;715;-72
2021/09/02 07:50:28;;;;;;;;;;;23.40;53.40;;;;;;1581465;73;1947;-72
2021/09/02 07:52:30;;;;;;;;;;;23.40;53.60;;;;;;1579038;75;644;-69
2021/09/02 07:54:32;;;;;;;;;;;23.50;54.10;;;;;;1572457;75;782;-73
2021/09/02 07:56:34;;;;;;;;;;;23.50;54.30;;;;;;1574514;75;863;-71
2021/09/02 07:58:36;;;;;;;;;;;23.60;54.30;;;;;;1572346;75;717;-72
2021/09/02 08:00:38;;;;;;;;;;;23.50;54.10;;;;;;1577802;75;1172;-75
2021/09/02 08:02:39;;;;;;;;;;;23.60;54.20;;;;;;1567710;75;730;-70
2021/09/02 08:04:41;;;;;;;;;;;23.60;54.10;;;;;;1573667;75;731;-75
2021/09/02 08:06:43;;;;;;;;;;;23.80;53.90;;;;;;1576019;75;764;-71
2021/09/02 08:08:45;;;;;;;;;;;23.80;53.60;;;;;;1577481;75;776;-74
2021/09/02 08:10:47;;;;;;;;;;;23.90;53.60;;;;;;1577882;75;1934;-72
2021/09/02 08:12:49;;;;;;;;;;;24.00;53.20;;;;;;1577378;75;743;-71
2021/09/02 08:14:51;;;;;;;;;;;24.20;52.80;;;;;;1572527;75;792;-71
2021/09/02 08:16:53;;;;;;;;;;;24.30;52.40;;;;;;1578590;75;717;-73
2021/09/02 08:18:57;;;;;;;;;;;24.30;52.30;;;;;;1578164;75;643;-73
2021/09/02 08:20:58;;;;;;;;;;;24.30;51.90;;;;;;1577331;75;1681;-72
2021/09/02 08:23:00;;;;;;;;;;;24.40;51.80;;;;;;1577788;75;731;-72
2021/09/02 08:25:02;;;;;;;;;;;24.50;51.50;;;;;;1577763;75;765;-71
2021/09/02 08:27:04;;;;;;;;;;;24.50;51.40;;;;;;1577826;74;726;-68
2021/09/02 08:29:06;;;;;;;;;;;24.60;51.30;;;;;;1580101;74;867;-71
2021/09/02 08:31:08;;;;;;;;;;;24.60;51.20;;;;;;1578646;75;1956;-77
2021/09/02 08:33:10;;;;;;;;;;;24.60;51.00;;;;;;1581039;75;722;-75
2021/09/02 08:35:12;;;;;;;;;;;24.60;51.00;;;;;;1579136;75;665;-69
2021/09/02 08:37:14;;;;;;;;;;;24.60;50.80;;;;;;1578225;75;733;-76
2021/09/02 08:39:16;;;;;;;;;;;24.70;50.80;;;;;;1577637;75;802;-70
2021/09/02 08:41:17;;;;;;;;;;;24.70;50.80;;;;;;1590186;73;1112;-71
2021/09/02 08:43:19;;;;;;;;;;;24.70;50.80;;;;;;1595346;74;741;-71
2021/09/02 08:45:22;;;;;;;;;;;24.70;50.90;;;;;;1593423;73;737;-72
2021/09/02 08:47:23;;;;;;;;;;;24.60;50.80;;;;;;1593706;73;707;-73
2021/09/02 08:49:25;;;;;;;;;;;24.60;51.00;;;;;;1594345;73;793;-71
2021/09/02 08:51:27;;;;;;;;;;;24.60;51.10;;;;;;1594728;73;1943;-71
2021/09/02 08:53:29;;;;;;;;;;;24.60;51.20;;;;;;1591727;74;672;-72
2021/09/02 08:55:31;;;;;;;;;;;24.60;51.20;;;;;;1593092;74;723;-73
2021/09/02 08:57:33;;;;;;;;;;;24.60;51.20;;;;;;1591997;73;797;-77
2021/09/02 08:59:35;;;;;;;;;;;24.60;51.10;;;;;;1587475;73;1142;-71
2021/09/02 09:01:36;;;;;;;;;;;24.70;51.30;;;;;;1588378;74;795;-71
2021/09/02 09:03:38;;;;;;;;;;;24.70;51.20;;;;;;1597364;73;777;-77
2021/09/02 09:05:40;;;;;;;;;;;24.70;51.20;;;;;;1592847;73;720;-72
2021/09/02 09:07:47;;;;;;;;;;;24.70;51.20;;;;;;1590809;73;772;-77
2021/09/02 09:09:52;;;;;;;;;;;24.70;51.00;;;;;;1592294;73;1172;-72
2021/09/02 09:12:00;;;;;;;;;;;24.70;51.00;;;;;;1593178;73;1927;-73
2021/09/02 09:14:08;;;;;;;;;;;24.70;51.00;;;;;;1585219;74;1674;-71
2021/09/02 09:16:10;;;;;;;;;;;24.70;51.00;;;;;;1588357;74;773;-76
2021/09/02 09:18:24;;;;;;;;;;;24.70;51.00;;;;;;1594515;73;685;-71
2021/09/02 09:20:26;;;;;;;;;;;24.80;50.90;;;;;;1596651;74;1175;-71
2021/09/02 09:22:29;;;;;;;;;;;24.70;50.90;;;;;;1596210;74;712;-72
2021/09/02 09:24:44;;;;;;;;;;;24.70;50.90;;;;;;1590698;73;740;-75
2021/09/02 09:26:46;;;;;;;;;;;24.80;50.90;;;;;;1582217;73;782;-71
2021/09/02 09:28:47;;;;;;;;;;;24.80;50.90;;;;;;1594776;74;715;-72
2021/09/02 09:30:49;;;;;;;;;;;24.70;50.90;;;;;;1596035;73;1234;-72
2021/09/02 09:32:52;;;;;;;;;;;24.70;50.90;;;;;;1595948;73;1941;-76
2021/09/02 09:34:54;;;;;;;;;;;24.70;50.80;;;;;;1594931;73;826;-81
2021/09/02 09:36:57;;;;;;;;;;;24.70;50.80;;;;;;1591136;73;723;-73
2021/09/02 09:39:03;;;;;;;;;;;24.70;50.80;;;;;;1596107;73;1683;-72
2021/09/02 09:41:06;;;;;;;;;;;24.70;50.80;;;;;;1587299;73;1132;-72
2021/09/02 09:43:08;;;;;;;;;;;24.70;50.80;;;;;;1591292;74;700;-71
2021/09/02 09:45:11;;;;;;;;;;;24.80;50.90;;;;;;1590999;74;921;-72
2021/09/02 09:47:20;;;;;;;;;;;24.80;50.90;;;;;;1594794;73;809;-71
2021/09/02 09:49:22;;;;;;;;;;;24.70;50.90;;;;;;1588914;73;915;-77
2021/09/02 09:51:24;;;;;;;;;;;24.60;50.80;;;;;;1597498;73;1938;-72
2021/09/02 09:53:26;;;;;;;;;;;24.70;51.00;;;;;;1595879;73;764;-71
2021/09/02 09:55:28;;;;;;;;;;;24.70;51.00;;;;;;1591319;73;745;-72
2021/09/02 09:57:30;;;;;;;;;;;24.60;50.90;;;;;;1598468;73;721;-71
2021/09/02 09:59:32;;;;;;;;;;;24.60;50.80;;;;;;1587231;74;1143;-71
2021/09/02 10:01:35;;;;;;;;;;;24.60;50.90;;;;;;1597548;73;782;-70
2021/09/02 10:03:37;;;;;;;;;;;24.60;50.90;;;;;;1593773;74;765;-71
2021/09/02 10:05:39;;;;;;;;;;;24.60;50.90;;;;;;1595973;73;670;-72
2021/09/02 10:07:42;;;;;;;;;;;24.60;50.60;;;;;;1558379;75;797;-69
2021/09/02 10:09:44;;;;;;;;;;;24.50;49.60;;;;;;1585147;74;1167;-73
2021/09/02 10:11:46;;;;;;;;;;;24.50;49.30;;;;;;1591850;74;1920;-76
2021/09/02 10:13:48;;;;;;;;;;;24.50;49.60;;;;;;1592561;74;760;-75
2021/09/02 10:15:49;;;;;;;;;;;24.40;49.60;;;;;;1593729;73;902;-71
2021/09/02 10:17:51;;;;;;;;;;;24.40;49.70;;;;;;1594374;73;821;-72
2021/09/02 10:19:53;;;;;;;;;;;24.50;49.90;;;;;;1594127;73;1147;-74
2021/09/02 10:21:56;;;;;;;;;;;24.50;50.00;;;;;;1583626;73;735;-72
2021/09/02 10:23:59;;;;;;;;;;;24.50;50.10;;;;;;1595236;73;727;-68
2021/09/02 10:26:01;;;;;;;;;;;24.50;50.20;;;;;;1571702;73;1718;-70
2021/09/02 10:28:04;;;;;;;;;;;24.50;50.20;;;;;;1582526;74;786;-69
2021/09/02 10:30:22;;;;;;;;;;;24.50;50.50;;;;;;1585954;73;1128;-70
2021/09/02 10:32:26;;;;;;;;;;;24.50;48.10;;;;;;1592392;73;1902;-66
2021/09/02 10:34:28;;;;;;;;;;;24.30;47.30;;;;;;1590646;73;783;-69
2021/09/02 10:36:32;;;;;;;;;;;24.30;49.10;;;;;;1594718;73;792;-68
2021/09/02 10:38:45;;;;;;;;;;;24.30;48.60;;;;;;1598517;73;749;-68
2021/09/02 10:40:47;;;;;;;;;;;24.20;47.30;;;;;;1584145;74;1147;-68
2021/09/02 10:42:53;;;;;;;;;;;24.20;45.70;;;;;;1583138;73;772;-68
2021/09/02 10:44:55;;;;;;;;;;;24.10;46.40;;;;;;1581451;73;968;-68
2021/09/02 10:46:57;;;;;;;;;;;24.00;46.10;;;;;;1591984;73;802;-68
2021/09/02 10:49:14;;;;;;;;;;;24.00;46.30;;;;;;1588033;73;658;-67
2021/09/02 10:51:35;;;;;;;;;;;23.90;46.30;;;;;;1588938;73;1151;-68
2021/09/02 10:53:38;;;;;;;;;;;23.80;45.70;;;;;;1592354;73;733;-65
2021/09/02 10:55:41;;;;;;;;;;;23.80;46.00;;;;;;1588439;74;1801;-67
2021/09/02 10:57:43;;;;;;;;;;;23.60;46.80;;;;;;1583487;73;789;-65
2021/09/02 10:59:51;;;;;;;;;;;23.60;46.30;;;;;;1592816;73;1072;-66
2021/09/02 11:01:53;;;;;;;;;;;23.60;46.40;;;;;;1586814;73;774;-69
2021/09/02 11:04:03;;;;;;;;;;;23.50;45.90;;;;;;1589070;73;749;-67
2021/09/02 11:06:01;;;;;;;;;;;23.60;45.30;;;;;;1588681;74;1603;-66
2021/09/02 11:08:03;;;;;;;;;;;23.60;46.50;;;;;;1588368;73;674;-66
2021/09/02 11:10:16;;;;;;;;;;;23.60;45.40;;;;;;1593229;73;1201;-67
2021/09/02 11:12:18;;;;;;;;;;;23.50;45.30;;;;;;1597983;73;1897;-66
2021/09/02 11:14:20;;;;;;;;;;;23.60;45.50;;;;;;1595474;73;815;-66
2021/09/02 11:16:23;;;;;;;;;;;23.50;44.00;;;;;;1590671;74;891;-66
2021/09/02 11:18:25;;;;;;;;;;;23.50;45.20;;;;;;1582652;74;699;-65
2021/09/02 11:20:28;;;;;;;;;;;23.40;44.70;;;;;;1561780;75;1134;-65
2021/09/02 11:22:30;;;;;;;;;;;23.40;44.70;;;;;;1595223;74;754;-67
2021/09/02 11:24:33;;;;;;;;;;;23.40;44.50;;;;;;1595682;74;756;-67
2021/09/02 11:26:40;;;;;;;;;;;23.30;45.30;;;;;;1595024;73;1778;-66
2021/09/02 11:28:44;;;;;;;;;;;23.30;45.30;;;;;;1592438;73;1248;-67
2021/09/02 11:30:45;;;;;;;;;;;23.40;44.50;;;;;;1591080;73;1111;-67
2021/09/02 11:32:55;;;;;;;;;;;23.30;45.10;;;;;;1586715;73;1922;-67
2021/09/02 11:35:00;;;;;;;;;;;23.20;44.50;;;;;;1574581;73;1451;-70
2021/09/02 11:37:02;;;;;;;;;;;23.10;44.20;;;;;;1594015;73;719;-66
2021/09/02 11:39:07;;;;;;;;;;;23.10;44.10;;;;;;1593095;73;752;-67
2021/09/02 11:41:23;;;;;;;;;;;23.10;43.00;;;;;;1586963;73;1147;-68
2021/09/02 11:43:24;;;;;;;;;;;23.10;44.70;;;;;;1580362;73;742;-68
2021/09/02 11:45:27;;;;;;;;;;;23.10;43.70;;;;;;1590170;73;666;-68
2021/09/02 11:47:36;;;;;;;;;;;23.10;43.80;;;;;;1586460;73;710;-68
2021/09/02 11:49:38;;;;;;;;;;;23.10;43.90;;;;;;1595835;73;1256;-68
2021/09/02 11:51:39;;;;;;;;;;;23.00;45.30;;;;;;1581990;73;821;-68
2021/09/02 11:53:41;;;;;;;;;;;23.00;45.00;;;;;;1590162;74;1958;-69
2021/09/02 11:55:44;;;;;;;;;;;23.10;45.20;;;;;;1590515;73;712;-66
2021/09/02 11:57:45;;;;;;;;;;;23.10;44.90;;;;;;1589687;73;768;-68
2021/09/02 11:59:50;;;;;;;;;;;23.00;44.10;;;;;;1556426;74;1318;-68
2021/09/02 12:01:52;;;;;;;;;;;22.90;45.10;;;;;;1589634;73;780;-68
2021/09/02 12:03:54;;;;;;;;;;;23.00;45.00;;;;;;1579640;73;770;-68
2021/09/02 12:05:56;;;;;;;;;;;23.00;45.00;;;;;;1595796;74;855;-68
2021/09/02 12:07:58;;;;;;;;;;;22.90;44.20;;;;;;1580586;73;805;-68
2021/09/02 12:10:01;;;;;;;;;;;22.90;45.10;;;;;;1583614;73;1170;-68